Decoded Metar for K1A5 (MACON/FRANKLIN in NC, USA) (IATA:1A5) | Meteo·Mobile Aviation Weather
aviador You're here:

K1A5 Decoded Metar

MACON/FRANKLIN in NC, USA
Report Time2020-02-23 10:35:00
UTC Time2020-02-23 10:36:17
Flight Rules vfr VFR
WindCalm
Visibility9999 m
Phenomena:N/A
Clouds:N/A
Expected CloudBase > 400 ft AGL from Temp-Dew spread
CeilingNone
Temp-3°C (ISA -14)
Dew Point-4°C (93% RH)
AAT-5.5°C
QNH1027 hPa
Density Alt-98 ft
Elevation2,021 ft
Report Wrong Elevation
Raw Report
METAR K1A5 231035Z AUTO 00000KT 10SM CLR M03/M04 A3032 RMK AO2 T10321045=

Extra information for K1A5:More info

Metar Taf Metar & Taf Last 4 Metars F.Rules Stats Wind Profile Meteogram Temp Stats Airport Information Weather charts Add Link Nearby VenuesMetar ALERT Operation Metar Decoded Social comments

AIRNAV info for K1A5